createdAt,value
2019-06-10T00:00:37.092Z,19.77
2019-06-10T00:03:07.266Z,19.72
2019-06-10T00:05:37.056Z,19.65
2019-06-10T00:08:07.123Z,19.57
2019-06-10T00:10:36.932Z,19.51
2019-06-10T00:13:07.350Z,19.47
2019-06-10T00:15:40.752Z,19.46
2019-06-10T00:18:33.325Z,19.46
2019-06-10T00:20:41.441Z,19.43
2019-06-10T00:23:12.677Z,19.43
2019-06-10T00:25:42.501Z,19.43
2019-06-10T00:28:12.403Z,19.43
2019-06-10T00:30:42.322Z,19.42
2019-06-10T00:33:12.735Z,19.37
2019-06-10T00:35:42.531Z,19.32
2019-06-10T00:38:14.321Z,19.24
2019-06-10T00:40:43.718Z,19.15
2019-06-10T00:43:13.754Z,19.08
2019-06-10T00:45:44.605Z,19.02
2019-06-10T00:48:25.169Z,19.01
2019-06-10T00:50:45.735Z,19.01
2019-06-10T00:53:15.451Z,18.99
2019-06-10T00:55:45.191Z,18.93
2019-06-10T00:58:14.902Z,18.90
2019-06-10T01:00:44.723Z,18.88
2019-06-10T01:03:15.298Z,18.86
2019-06-10T01:05:46.253Z,18.85
2019-06-10T01:08:15.958Z,18.85
2019-06-10T01:10:45.677Z,18.85
2019-06-10T01:13:15.587Z,18.81
2019-06-10T01:15:45.369Z,18.77
2019-06-10T01:18:34.156Z,18.72
2019-06-10T01:20:47.090Z,18.68
2019-06-10T01:23:17.601Z,18.62
2019-06-10T01:25:47.504Z,18.59
2019-06-10T01:28:18.514Z,18.58
2019-06-10T01:30:48.392Z,18.59
2019-06-10T01:33:18.098Z,18.61
2019-06-10T01:35:47.846Z,18.59
2019-06-10T01:38:18.362Z,18.56
2019-06-10T01:40:50.959Z,18.54
2019-06-10T01:43:21.548Z,18.54
2019-06-10T01:45:51.465Z,18.53
2019-06-10T01:48:21.288Z,18.48
2019-06-10T01:50:51.398Z,18.43
2019-06-10T01:53:22.253Z,18.37
2019-06-10T01:55:52.143Z,18.29
2019-06-10T01:58:23.639Z,18.21
2019-06-10T02:01:13.503Z,18.18
2019-06-10T02:03:41.532Z,18.18
2019-06-10T02:06:14.407Z,18.16
2019-06-10T02:08:42.963Z,18.12
2019-06-10T02:11:15.714Z,18.14
2019-06-10T02:13:44.097Z,18.17
2019-06-10T02:16:15.786Z,18.23
2019-06-10T02:18:59.799Z,18.24
2019-06-10T02:21:18.024Z,18.27
2019-06-10T02:23:48.275Z,18.30
2019-06-10T02:26:19.335Z,18.33
2019-06-10T02:28:51.255Z,18.35
2019-06-10T02:31:30.002Z,18.36
2019-06-10T02:33:52.741Z,18.32
2019-06-10T02:36:30.497Z,18.27
2019-06-10T02:38:54.224Z,18.22
2019-06-10T02:41:31.667Z,18.19
2019-06-10T02:43:55.347Z,18.14
2019-06-10T02:46:31.177Z,18.12
2019-06-10T02:49:16.410Z,18.09
2019-06-10T02:51:31.560Z,18.05
2019-06-10T02:54:04.450Z,18.04
2019-06-10T02:56:36.598Z,18.03
2019-06-10T02:59:03.879Z,18.04
2019-06-10T03:01:37.883Z,18.04
2019-06-10T03:04:05.162Z,18.02
2019-06-10T03:07:07.754Z,18.02
2019-06-10T03:09:37.454Z,18.03
2019-06-10T03:12:07.299Z,17.99
2019-06-10T03:14:36.984Z,17.98
2019-06-10T03:17:12.462Z,17.95
2019-06-10T03:19:50.150Z,17.92
2019-06-10T03:22:13.894Z,17.90
2019-06-10T03:24:43.586Z,17.85
2019-06-10T03:27:13.310Z,17.86
2019-06-10T03:29:43.000Z,17.84
2019-06-10T03:32:16.577Z,17.84
2019-06-10T03:34:47.195Z,17.83
2019-06-10T03:37:16.328Z,17.82
2019-06-10T03:39:46.139Z,17.82
2019-06-10T03:42:16.984Z,17.82
2019-06-10T03:44:46.706Z,17.80
2019-06-10T03:47:17.089Z,17.83
2019-06-10T03:49:52.577Z,17.85
2019-06-10T03:52:19.327Z,17.86
2019-06-10T03:54:49.125Z,17.85
2019-06-10T03:57:19.249Z,17.86
2019-06-10T03:59:49.075Z,17.87
2019-06-10T04:02:19.416Z,17.90
2019-06-10T04:04:49.353Z,17.88
2019-06-10T04:07:20.899Z,17.88
2019-06-10T04:09:52.509Z,17.88
2019-06-10T04:12:24.269Z,17.89
2019-06-10T04:14:53.417Z,17.89
2019-06-10T04:17:25.095Z,17.90
2019-06-10T04:20:07.921Z,17.96
2019-06-10T04:22:26.866Z,18.02
2019-06-10T04:24:57.485Z,18.07
2019-06-10T04:27:28.397Z,18.12
2019-06-10T04:29:58.326Z,18.13
2019-06-10T04:32:29.130Z,18.11
2019-06-10T04:34:58.981Z,18.09
2019-06-10T04:37:29.552Z,18.07
2019-06-10T04:39:59.379Z,18.03
2019-06-10T04:42:29.157Z,18.01
2019-06-10T04:44:58.865Z,17.97
2019-06-10T04:47:29.654Z,17.97
2019-06-10T04:49:59.511Z,17.94
2019-06-10T04:52:29.781Z,17.95
2019-06-10T04:55:02.523Z,17.94
2019-06-10T04:57:32.756Z,17.97
2019-06-10T05:00:10.986Z,18.01
2019-06-10T05:02:34.424Z,18.06
2019-06-10T05:05:04.838Z,18.13
2019-06-10T05:07:37.130Z,18.19
2019-06-10T05:10:06.540Z,18.30
2019-06-10T05:12:36.262Z,18.36
2019-06-10T05:15:07.407Z,18.41
2019-06-10T05:17:37.105Z,18.45
2019-06-10T05:20:07.315Z,18.47
2019-06-10T05:22:37.101Z,18.49
2019-06-10T05:25:07.109Z,18.49
2019-06-10T05:27:36.818Z,18.51
2019-06-10T05:30:07.848Z,18.58
2019-06-10T05:32:37.625Z,18.63
2019-06-10T05:35:07.774Z,18.66
2019-06-10T05:37:37.516Z,18.67
2019-06-10T05:40:07.791Z,18.62
2019-06-10T05:42:37.524Z,18.57
2019-06-10T05:45:08.832Z,18.59
2019-06-10T05:47:38.536Z,18.63
2019-06-10T05:50:08.786Z,18.69
2019-06-10T05:52:38.493Z,18.75
2019-06-10T05:55:08.854Z,18.83
2019-06-10T05:57:38.596Z,18.97
2019-06-10T06:00:13.838Z,19.14
2019-06-10T06:02:40.463Z,19.37
2019-06-10T06:05:12.683Z,19.58
2019-06-10T06:07:42.457Z,19.73
2019-06-10T06:10:13.201Z,19.80
2019-06-10T06:12:42.925Z,19.81
2019-06-10T06:15:13.349Z,19.88
2019-06-10T06:17:44.060Z,19.96
2019-06-10T06:20:15.661Z,19.95
2019-06-10T06:22:45.370Z,19.93
2019-06-10T06:25:15.823Z,19.89
2019-06-10T06:27:45.621Z,20.00
2019-06-10T06:30:18.686Z,20.33
2019-06-10T06:32:47.126Z,20.87
2019-06-10T06:35:17.025Z,21.15
2019-06-10T06:37:46.746Z,21.34
2019-06-10T06:40:17.017Z,21.53
2019-06-10T06:42:46.737Z,22.48
2019-06-10T06:45:15.871Z,25.18
2019-06-10T06:47:44.627Z,27.35
2019-06-10T06:50:13.843Z,27.04
2019-06-10T06:53:15.354Z,25.94
2019-06-10T06:55:16.735Z,24.62
2019-06-10T06:57:46.567Z,23.82
2019-06-10T07:00:38.244Z,23.35
2019-06-10T07:02:48.548Z,23.23
2019-06-10T07:05:18.433Z,23.94
2019-06-10T07:07:48.725Z,25.20
2019-06-10T07:10:18.411Z,27.37
2019-06-10T07:12:52.225Z,28.67
2019-06-10T07:15:25.429Z,29.09
2019-06-10T07:17:55.205Z,29.15
2019-06-10T07:20:24.937Z,28.76
2019-06-10T07:22:54.793Z,28.82
2019-06-10T07:25:24.502Z,29.09
2019-06-10T07:27:55.166Z,29.41
2019-06-10T07:30:24.868Z,29.52
2019-06-10T07:32:54.599Z,29.84
2019-06-10T07:35:24.363Z,30.18
2019-06-10T07:37:54.146Z,28.99
2019-06-10T07:40:23.988Z,27.79
2019-06-10T07:42:53.740Z,27.59
2019-06-10T07:45:23.574Z,27.62
2019-06-10T07:47:53.314Z,27.32
2019-06-10T07:50:23.266Z,27.12
2019-06-10T07:52:53.050Z,26.67
2019-06-10T07:55:22.759Z,26.29
2019-06-10T07:57:53.084Z,26.62
2019-06-10T08:00:24.269Z,26.94
2019-06-10T08:02:53.993Z,27.04
2019-06-10T08:05:23.780Z,27.18
2019-06-10T08:07:54.761Z,27.18
2019-06-10T08:10:24.818Z,27.55
2019-06-10T08:12:55.625Z,28.72
2019-06-10T08:15:25.419Z,29.45
2019-06-10T08:17:55.561Z,28.99
2019-06-10T08:20:45.038Z,29.59
2019-06-10T08:23:15.144Z,30.22
2019-06-10T08:25:52.939Z,31.19
2019-06-10T08:28:17.368Z,31.68
2019-06-10T08:30:48.258Z,32.59
2019-06-10T08:33:18.158Z,33.12
2019-06-10T08:35:56.092Z,32.55
2019-06-10T08:38:19.520Z,32.19
2019-06-10T08:40:49.264Z,31.88
2019-06-10T08:43:19.068Z,31.73
2019-06-10T08:45:48.921Z,31.83
2019-06-10T08:48:18.693Z,31.10
2019-06-10T08:50:50.072Z,30.56
2019-06-10T08:53:22.510Z,30.57
2019-06-10T08:55:53.637Z,30.18
2019-06-10T08:58:23.312Z,30.41
2019-06-10T09:00:53.810Z,30.47
2019-06-10T09:03:23.932Z,30.66
2019-06-10T09:05:56.225Z,30.27
2019-06-10T09:08:25.770Z,29.84
2019-06-10T09:10:55.765Z,29.83
2019-06-10T09:13:25.432Z,29.84
2019-06-10T09:16:11.751Z,29.65
2019-06-10T09:18:27.699Z,29.50
2019-06-10T09:20:57.493Z,29.20
2019-06-10T09:23:27.227Z,28.86
2019-06-10T09:25:57.833Z,28.80
2019-06-10T09:28:28.645Z,28.67
2019-06-10T09:30:59.636Z,28.19
2019-06-10T09:33:29.707Z,27.93
2019-06-10T09:35:59.418Z,27.80
2019-06-10T09:38:29.185Z,27.97
2019-06-10T09:41:03.040Z,27.85
2019-06-10T09:43:32.983Z,28.15
2019-06-10T09:46:03.503Z,28.62
2019-06-10T09:48:33.728Z,29.10
2019-06-10T09:51:03.916Z,30.33
2019-06-10T09:53:42.241Z,30.41
2019-06-10T09:56:05.240Z,30.74
2019-06-10T09:58:34.943Z,31.40
2019-06-10T10:01:04.928Z,32.03
2019-06-10T10:03:34.615Z,31.75
2019-06-10T10:06:14.625Z,31.20
2019-06-10T10:08:36.771Z,29.70
2019-06-10T10:11:06.639Z,28.81
2019-06-10T10:13:36.520Z,28.44
2019-06-10T10:16:06.513Z,28.19
2019-06-10T10:18:36.297Z,27.94
2019-06-10T10:21:06.072Z,27.77
2019-06-10T10:23:50.068Z,27.70
2019-06-10T10:26:07.210Z,27.86
2019-06-10T10:28:36.918Z,28.20
2019-06-10T10:31:06.678Z,29.87
2019-06-10T10:33:36.374Z,31.23
2019-06-10T10:36:06.102Z,32.08
2019-06-10T10:38:35.780Z,32.16
2019-06-10T10:41:05.952Z,31.59
2019-06-10T10:43:37.990Z,30.75
2019-06-10T10:46:13.862Z,30.21
2019-06-10T10:48:42.963Z,29.92
2019-06-10T10:51:13.427Z,30.41
2019-06-10T10:53:48.235Z,30.54
2019-06-10T10:56:14.735Z,29.89
2019-06-10T10:58:46.998Z,29.71
2019-06-10T11:01:16.422Z,29.56
2019-06-10T11:03:48.207Z,29.33
2019-06-10T11:06:18.484Z,29.46
2019-06-10T11:08:48.723Z,30.25
2019-06-10T11:11:22.837Z,31.10
2019-06-10T11:13:56.391Z,32.01
2019-06-10T11:16:23.367Z,32.83
2019-06-10T11:18:55.995Z,33.07
2019-06-10T11:21:24.792Z,32.74
2019-06-10T11:24:00.797Z,31.95
2019-06-10T11:26:27.019Z,31.21
2019-06-10T11:28:57.927Z,31.35
2019-06-10T11:31:27.786Z,31.62
2019-06-10T11:33:59.107Z,31.34
2019-06-10T11:36:29.157Z,31.48
2019-06-10T11:38:59.270Z,31.58
2019-06-10T11:41:29.125Z,30.97
2019-06-10T11:43:59.379Z,30.65
2019-06-10T11:46:29.176Z,30.19
2019-06-10T11:48:59.149Z,30.03
2019-06-10T11:51:29.136Z,30.00
2019-06-10T11:53:59.036Z,30.32
2019-06-10T11:56:28.999Z,31.06
2019-06-10T11:59:00.463Z,31.59
2019-06-10T12:01:30.957Z,31.91
2019-06-10T12:04:03.972Z,31.66
2019-06-10T12:06:33.950Z,31.67
2019-06-10T12:09:07.257Z,31.29
2019-06-10T12:11:36.965Z,30.97
2019-06-10T12:14:07.028Z,31.25
2019-06-10T12:19:08.265Z,30.73
2019-06-10T12:21:38.232Z,30.68
2019-06-10T12:24:08.225Z,30.82
2019-06-10T12:26:38.097Z,31.07
2019-06-10T12:29:07.881Z,32.05
2019-06-10T12:31:37.753Z,33.40
2019-06-10T12:34:07.566Z,33.93
2019-06-10T12:36:38.289Z,34.45
2019-06-10T12:39:10.783Z,33.86
2019-06-10T12:41:42.893Z,32.79
2019-06-10T12:44:13.251Z,31.81
2019-06-10T12:46:43.453Z,30.74
2019-06-10T12:49:18.050Z,29.90
2019-06-10T12:51:45.867Z,29.21
2019-06-10T12:54:15.570Z,28.92
2019-06-10T12:56:45.750Z,28.95
2019-06-10T12:59:15.587Z,29.09
2019-06-10T13:01:46.501Z,29.17
2019-06-10T13:04:16.689Z,28.97
2019-06-10T13:06:48.317Z,28.61
2019-06-10T13:09:19.336Z,28.41
2019-06-10T13:11:49.452Z,28.17
2019-06-10T13:14:19.214Z,28.01
2019-06-10T13:16:48.977Z,28.00
2019-06-10T13:19:18.751Z,28.05
2019-06-10T13:21:48.612Z,28.06
2019-06-10T13:24:18.572Z,28.08
2019-06-10T13:26:48.376Z,28.35
2019-06-10T13:29:18.148Z,28.65
2019-06-10T13:31:48.016Z,28.54
2019-06-10T13:34:17.697Z,28.78
2019-06-10T13:36:47.608Z,29.10
2019-06-10T13:39:17.553Z,29.30
2019-06-10T13:41:47.312Z,29.30
2019-06-10T13:44:18.184Z,29.37
2019-06-10T13:46:48.176Z,29.28
2019-06-10T13:49:17.970Z,29.03
2019-06-10T13:51:47.784Z,28.91
2019-06-10T13:54:17.512Z,28.70
2019-06-10T13:56:47.781Z,28.72
2019-06-10T13:59:17.631Z,28.69
2019-06-10T14:01:47.342Z,28.65
2019-06-10T14:04:21.872Z,28.57
2019-06-10T14:06:50.521Z,28.45
2019-06-10T14:09:23.151Z,28.52
2019-06-10T14:11:52.320Z,28.71
2019-06-10T14:14:23.036Z,28.79
2019-06-10T14:16:54.096Z,28.71
2019-06-10T14:19:24.357Z,28.62
2019-06-10T14:21:55.408Z,28.63
2019-06-10T14:24:25.113Z,28.68
2019-06-10T14:26:55.007Z,28.65
2019-06-10T14:29:25.156Z,28.79
2019-06-10T14:31:56.038Z,29.13
2019-06-10T14:34:25.942Z,29.48
2019-06-10T14:36:55.664Z,29.69
2019-06-10T14:39:25.577Z,29.69
2019-06-10T14:41:55.349Z,29.55
2019-06-10T14:44:25.364Z,29.26
2019-06-10T14:46:55.245Z,29.21
2019-06-10T14:49:25.210Z,29.22
2019-06-10T14:51:54.981Z,29.15
2019-06-10T14:54:24.839Z,29.06
2019-06-10T14:56:57.396Z,28.87
2019-06-10T14:59:26.526Z,28.68
2019-06-10T15:01:56.254Z,28.54
2019-06-10T15:04:26.133Z,28.58
2019-06-10T15:06:55.967Z,28.77
2019-06-10T15:09:25.875Z,28.93
2019-06-10T15:11:55.595Z,29.01
2019-06-10T15:14:25.675Z,28.85
2019-06-10T15:16:55.886Z,28.71
2019-06-10T15:19:29.085Z,28.80
2019-06-10T15:21:57.838Z,29.12
2019-06-10T15:24:27.702Z,29.26
2019-06-10T15:27:12.159Z,29.17
2019-06-10T15:29:29.393Z,28.94
2019-06-10T15:32:13.587Z,28.81
2019-06-10T15:34:32.564Z,28.82
2019-06-10T15:37:02.981Z,28.75
2019-06-10T15:39:33.606Z,28.51
2019-06-10T15:42:03.520Z,28.38
2019-06-10T15:44:48.458Z,28.32
2019-06-10T15:47:05.313Z,28.30
2019-06-10T15:49:36.692Z,28.44
2019-06-10T15:52:06.880Z,28.56
2019-06-10T15:54:36.593Z,28.67
2019-06-10T15:57:19.293Z,28.60
2019-06-10T15:59:39.248Z,28.37
2019-06-10T16:02:09.206Z,28.07
2019-06-10T16:04:39.316Z,27.99
2019-06-10T16:07:09.646Z,28.27
2019-06-10T16:09:42.323Z,28.48
2019-06-10T16:12:14.360Z,28.68
2019-06-10T16:14:42.675Z,28.94
2019-06-10T16:17:13.913Z,28.90
2019-06-10T16:19:44.029Z,28.72
2019-06-10T16:22:14.498Z,28.66
2019-06-10T16:24:45.752Z,28.64
2019-06-10T16:27:15.893Z,28.64
2019-06-10T16:29:45.704Z,28.68
2019-06-10T16:32:16.308Z,28.71
2019-06-10T16:34:46.180Z,28.81
2019-06-10T16:37:17.070Z,28.86
2019-06-10T16:39:46.952Z,28.86
2019-06-10T16:42:17.432Z,28.91
2019-06-10T16:44:47.820Z,28.99
2019-06-10T16:47:19.111Z,28.97
2019-06-10T16:49:49.294Z,28.96
2019-06-10T16:52:19.519Z,28.95
2019-06-10T16:54:49.768Z,28.91
2019-06-10T16:57:19.857Z,28.82
2019-06-10T16:59:52.093Z,28.74
2019-06-10T17:02:23.936Z,28.66
2019-06-10T17:04:53.356Z,28.57
2019-06-10T17:07:23.085Z,28.44
2019-06-10T17:09:53.955Z,28.35
2019-06-10T17:12:25.974Z,28.26
2019-06-10T17:14:55.192Z,28.22
2019-06-10T17:17:26.578Z,28.18
2019-06-10T17:19:56.512Z,28.10
2019-06-10T17:22:28.706Z,28.05
2019-06-10T17:24:57.712Z,28.01
2019-06-10T17:27:27.945Z,27.96
2019-06-10T17:29:58.875Z,27.87
2019-06-10T17:32:28.724Z,27.79
2019-06-10T17:34:58.616Z,27.71
2019-06-10T17:37:33.759Z,27.63
2019-06-10T17:40:03.039Z,27.59
2019-06-10T17:42:38.012Z,27.53
2019-06-10T17:45:05.324Z,27.53
2019-06-10T17:47:35.179Z,27.47
2019-06-10T17:50:05.861Z,27.38
2019-06-10T17:52:38.806Z,27.28
2019-06-10T17:55:08.623Z,27.19
2019-06-10T17:57:38.647Z,27.16
2019-06-10T18:00:12.239Z,27.16
2019-06-10T18:02:42.638Z,27.10
2019-06-10T18:05:12.931Z,26.99
2019-06-10T18:07:42.990Z,26.86
2019-06-10T18:10:13.618Z,26.73
2019-06-10T18:12:43.327Z,26.61
2019-06-10T18:15:14.979Z,26.52
2019-06-10T18:17:44.841Z,26.43
2019-06-10T18:20:17.794Z,26.38
2019-06-10T18:22:47.562Z,26.36
2019-06-10T18:25:18.722Z,26.36
2019-06-10T18:27:48.590Z,26.38
2019-06-10T18:30:18.587Z,26.40
2019-06-10T18:32:48.355Z,26.40
2019-06-10T18:35:18.645Z,26.39
2019-06-10T18:37:48.401Z,26.37
2019-06-10T18:40:18.757Z,26.36
2019-06-10T18:42:48.546Z,26.34
2019-06-10T18:45:18.957Z,26.31
2019-06-10T18:47:48.689Z,26.27
2019-06-10T18:50:18.818Z,26.22
2019-06-10T18:52:50.258Z,26.17
2019-06-10T18:55:22.590Z,26.08
2019-06-10T18:57:52.989Z,25.97
2019-06-10T19:00:23.452Z,25.85
2019-06-10T19:03:08.711Z,25.75
2019-06-10T19:05:24.978Z,25.67
2019-06-10T19:07:54.825Z,25.60
2019-06-10T19:10:25.827Z,25.54
2019-06-10T19:12:55.606Z,25.48
2019-06-10T19:15:25.479Z,25.46
2019-06-10T19:17:55.411Z,25.45
2019-06-10T19:20:25.503Z,25.42
2019-06-10T19:22:55.449Z,25.35
2019-06-10T19:25:25.767Z,25.30
2019-06-10T19:27:55.638Z,25.26
2019-06-10T19:30:27.783Z,25.27
2019-06-10T19:32:57.736Z,25.18
2019-06-10T19:35:27.657Z,25.11
2019-06-10T19:37:57.495Z,25.05
2019-06-10T19:40:27.618Z,24.99
2019-06-10T19:42:57.533Z,24.97
2019-06-10T19:45:27.411Z,24.95
2019-06-10T19:47:57.394Z,24.94
2019-06-10T19:50:27.330Z,24.87
2019-06-10T19:52:57.173Z,24.76
2019-06-10T19:55:26.935Z,24.69
2019-06-10T19:57:56.666Z,24.60
2019-06-10T20:00:26.613Z,24.48
2019-06-10T20:02:56.328Z,24.37
2019-06-10T20:05:26.332Z,24.41
2019-06-10T20:07:56.181Z,24.46
2019-06-10T20:10:26.062Z,24.50
2019-06-10T20:12:56.071Z,24.44
2019-06-10T20:15:26.826Z,24.38
2019-06-10T20:17:56.619Z,24.27
2019-06-10T20:20:26.476Z,24.02
2019-06-10T20:22:57.523Z,23.79
2019-06-10T20:25:27.905Z,23.70
2019-06-10T20:27:57.797Z,23.65
2019-06-10T20:30:29.178Z,23.63
2019-06-10T20:32:59.142Z,23.72
2019-06-10T20:35:29.111Z,23.81
2019-06-10T20:37:58.911Z,23.90
2019-06-10T20:40:28.784Z,23.97
2019-06-10T20:43:00.213Z,24.03
2019-06-10T20:45:33.230Z,24.07
2019-06-10T20:48:02.899Z,24.09
2019-06-10T20:50:32.745Z,24.12
2019-06-10T20:53:11.972Z,24.11
2019-06-10T20:55:42.073Z,24.08
2019-06-10T20:58:07.338Z,24.06
2019-06-10T21:00:44.161Z,24.00
2019-06-10T21:03:09.582Z,23.90
2019-06-10T21:05:41.569Z,23.78
2019-06-10T21:08:12.285Z,23.69
2019-06-10T21:10:45.157Z,23.62
2019-06-10T21:13:14.144Z,23.60
2019-06-10T21:15:47.502Z,23.58
2019-06-10T21:18:16.105Z,23.54
2019-06-10T21:20:49.614Z,23.50
2019-06-10T21:23:18.264Z,23.47
2019-06-10T21:25:50.688Z,23.44
2019-06-10T21:28:20.080Z,23.45
2019-06-10T21:30:54.925Z,23.46
2019-06-10T21:33:23.473Z,23.44
2019-06-10T21:35:54.798Z,23.43
2019-06-10T21:38:24.843Z,23.46
2019-06-10T21:40:54.766Z,23.45
2019-06-10T21:43:24.830Z,23.40
2019-06-10T21:45:57.793Z,23.35
2019-06-10T21:48:27.189Z,23.27
2019-06-10T21:50:56.916Z,23.21
2019-06-10T21:53:26.913Z,23.15
2019-06-10T21:55:56.715Z,23.11
2019-06-10T21:58:26.519Z,23.06
2019-06-10T22:01:09.798Z,23.03
2019-06-10T22:03:28.010Z,22.98
2019-06-10T22:05:57.863Z,22.95
2019-06-10T22:08:27.623Z,22.95
2019-06-10T22:10:57.396Z,22.93
2019-06-10T22:13:27.308Z,22.90
2019-06-10T22:15:57.292Z,22.87
2019-06-10T22:18:28.027Z,22.84
2019-06-10T22:20:57.924Z,22.80
2019-06-10T22:23:27.797Z,22.76
2019-06-10T22:25:57.791Z,22.73
2019-06-10T22:28:27.912Z,22.68
2019-06-10T22:31:15.205Z,22.66
2019-06-10T22:33:29.984Z,22.64
2019-06-10T22:36:02.189Z,22.64
2019-06-10T22:38:32.806Z,22.61
2019-06-10T22:41:03.349Z,22.60
2019-06-10T22:43:33.280Z,22.56
2019-06-10T22:46:04.166Z,22.51
2019-06-10T22:48:33.938Z,22.47
2019-06-10T22:51:03.720Z,22.42
2019-06-10T22:53:33.608Z,22.39
2019-06-10T22:56:03.327Z,22.35
2019-06-10T22:58:33.229Z,22.32
2019-06-10T23:01:04.225Z,22.27
2019-06-10T23:03:34.200Z,22.22
2019-06-10T23:06:04.528Z,22.15
2019-06-10T23:08:34.465Z,22.07
2019-06-10T23:11:04.670Z,22.04
2019-06-10T23:13:34.574Z,21.98
2019-06-10T23:16:04.474Z,21.91
2019-06-10T23:18:34.165Z,21.84
2019-06-10T23:21:04.645Z,21.75
2019-06-10T23:23:34.377Z,21.69
2019-06-10T23:26:04.143Z,21.58
2019-06-10T23:28:34.103Z,21.47
2019-06-10T23:31:05.294Z,21.48
2019-06-10T23:33:35.628Z,21.52
2019-06-10T23:36:05.355Z,21.57
2019-06-10T23:38:35.112Z,21.63
2019-06-10T23:41:05.024Z,21.67
2019-06-10T23:43:34.738Z,21.71
2019-06-10T23:46:04.619Z,21.67
2019-06-10T23:48:34.451Z,21.63
2019-06-10T23:51:05.182Z,21.62
2019-06-10T23:53:35.809Z,21.59
2019-06-10T23:56:06.089Z,21.54
2019-06-10T23:58:36.050Z,21.57
